sensor_id;sensor_type;location;lat;lon;timestamp;P1;durP1;ratioP1;P2;durP2;ratioP2
53339;SDS011;46212;50.258;19.062;2024-02-28T00:04:02;46.97;;;24.60;;
53339;SDS011;46212;50.258;19.062;2024-02-28T00:06:27;48.33;;;25.97;;
53339;SDS011;46212;50.258;19.062;2024-02-28T00:08:53;49.37;;;25.70;;
53339;SDS011;46212;50.258;19.062;2024-02-28T00:11:20;53.72;;;27.48;;
53339;SDS011;46212;50.258;19.062;2024-02-28T00:13:45;49.05;;;26.10;;
53339;SDS011;46212;50.258;19.062;2024-02-28T00:16:11;65.77;;;31.67;;
53339;SDS011;46212;50.258;19.062;2024-02-28T00:18:36;50.27;;;27.10;;
53339;SDS011;46212;50.258;19.062;2024-02-28T00:21:02;53.27;;;28.60;;
53339;SDS011;46212;50.258;19.062;2024-02-28T00:23:28;57.10;;;28.67;;
53339;SDS011;46212;50.258;19.062;2024-02-28T00:25:54;49.80;;;29.90;;
53339;SDS011;46212;50.258;19.062;2024-02-28T00:28:20;56.40;;;28.87;;
53339;SDS011;46212;50.258;19.062;2024-02-28T00:30:46;51.70;;;28.17;;
53339;SDS011;46212;50.258;19.062;2024-02-28T00:33:11;53.30;;;31.30;;
53339;SDS011;46212;50.258;19.062;2024-02-28T00:35:36;58.43;;;31.60;;
53339;SDS011;46212;50.258;19.062;2024-02-28T00:38:02;58.47;;;31.60;;
53339;SDS011;46212;50.258;19.062;2024-02-28T00:40:28;62.73;;;33.90;;
53339;SDS011;46212;50.258;19.062;2024-02-28T00:42:53;63.23;;;32.37;;
53339;SDS011;46212;50.258;19.062;2024-02-28T00:45:20;61.30;;;31.63;;
53339;SDS011;46212;50.258;19.062;2024-02-28T00:47:45;69.70;;;37.13;;
53339;SDS011;46212;50.258;19.062;2024-02-28T00:50:11;74.03;;;35.17;;
53339;SDS011;46212;50.258;19.062;2024-02-28T00:52:36;70.00;;;36.70;;
53339;SDS011;46212;50.258;19.062;2024-02-28T00:55:02;69.20;;;35.90;;
53339;SDS011;46212;50.258;19.062;2024-02-28T00:57:29;66.22;;;33.55;;
53339;SDS011;46212;50.258;19.062;2024-02-28T00:59:55;65.17;;;36.27;;
53339;SDS011;46212;50.258;19.062;2024-02-28T01:02:21;54.50;;;30.90;;
53339;SDS011;46212;50.258;19.062;2024-02-28T01:04:46;63.50;;;31.53;;
53339;SDS011;46212;50.258;19.062;2024-02-28T01:07:12;62.03;;;35.13;;
53339;SDS011;46212;50.258;19.062;2024-02-28T01:09:37;65.53;;;33.77;;
53339;SDS011;46212;50.258;19.062;2024-02-28T01:12:02;60.67;;;31.87;;
53339;SDS011;46212;50.258;19.062;2024-02-28T01:14:28;64.97;;;35.47;;
53339;SDS011;46212;50.258;19.062;2024-02-28T01:16:53;63.57;;;33.17;;
53339;SDS011;46212;50.258;19.062;2024-02-28T01:19:19;59.10;;;31.97;;
53339;SDS011;46212;50.258;19.062;2024-02-28T01:21:44;57.43;;;34.97;;
53339;SDS011;46212;50.258;19.062;2024-02-28T01:24:09;62.20;;;33.27;;
53339;SDS011;46212;50.258;19.062;2024-02-28T01:26:35;71.23;;;33.43;;
53339;SDS011;46212;50.258;19.062;2024-02-28T01:29:00;64.90;;;35.37;;
53339;SDS011;46212;50.258;19.062;2024-02-28T01:31:25;69.43;;;35.47;;
53339;SDS011;46212;50.258;19.062;2024-02-28T01:33:51;69.60;;;35.27;;
53339;SDS011;46212;50.258;19.062;2024-02-28T01:36:16;65.10;;;34.73;;
53339;SDS011;46212;50.258;19.062;2024-02-28T01:38:41;62.57;;;34.60;;
53339;SDS011;46212;50.258;19.062;2024-02-28T01:41:07;65.30;;;34.90;;
53339;SDS011;46212;50.258;19.062;2024-02-28T01:43:33;64.87;;;35.30;;
53339;SDS011;46212;50.258;19.062;2024-02-28T01:46:03;62.20;;;34.03;;
53339;SDS011;46212;50.258;19.062;2024-02-28T01:48:34;60.45;;;32.03;;
53339;SDS011;46212;50.258;19.062;2024-02-28T01:50:59;60.10;;;33.70;;
53339;SDS011;46212;50.258;19.062;2024-02-28T01:53:25;71.77;;;39.50;;
53339;SDS011;46212;50.258;19.062;2024-02-28T01:55:51;66.80;;;35.50;;
53339;SDS011;46212;50.258;19.062;2024-02-28T01:58:17;72.88;;;36.92;;
53339;SDS011;46212;50.258;19.062;2024-02-28T02:00:43;76.17;;;38.07;;
53339;SDS011;46212;50.258;19.062;2024-02-28T02:03:10;74.10;;;39.17;;
53339;SDS011;46212;50.258;19.062;2024-02-28T02:05:35;68.13;;;35.47;;
53339;SDS011;46212;50.258;19.062;2024-02-28T02:08:01;80.07;;;39.80;;
53339;SDS011;46212;50.258;19.062;2024-02-28T02:10:26;56.80;;;31.43;;
53339;SDS011;46212;50.258;19.062;2024-02-28T02:12:52;69.93;;;37.70;;
53339;SDS011;46212;50.258;19.062;2024-02-28T02:15:18;68.27;;;37.47;;
53339;SDS011;46212;50.258;19.062;2024-02-28T02:17:43;73.50;;;38.53;;
53339;SDS011;46212;50.258;19.062;2024-02-28T02:20:09;65.90;;;38.07;;
53339;SDS011;46212;50.258;19.062;2024-02-28T02:22:39;70.47;;;36.45;;
53339;SDS011;46212;50.258;19.062;2024-02-28T02:25:05;61.20;;;34.25;;
53339;SDS011;46212;50.258;19.062;2024-02-28T02:27:30;70.67;;;36.47;;
53339;SDS011;46212;50.258;19.062;2024-02-28T02:29:56;68.90;;;35.03;;
53339;SDS011;46212;50.258;19.062;2024-02-28T02:32:23;70.40;;;35.43;;
53339;SDS011;46212;50.258;19.062;2024-02-28T02:34:48;64.63;;;33.65;;
53339;SDS011;46212;50.258;19.062;2024-02-28T02:37:14;66.83;;;35.07;;
53339;SDS011;46212;50.258;19.062;2024-02-28T02:39:39;62.37;;;33.10;;
53339;SDS011;46212;50.258;19.062;2024-02-28T02:42:05;68.70;;;35.37;;
53339;SDS011;46212;50.258;19.062;2024-02-28T02:44:30;65.03;;;34.63;;
53339;SDS011;46212;50.258;19.062;2024-02-28T02:46:56;65.63;;;34.57;;
53339;SDS011;46212;50.258;19.062;2024-02-28T02:49:21;64.87;;;35.17;;
53339;SDS011;46212;50.258;19.062;2024-02-28T02:51:46;66.17;;;33.17;;
53339;SDS011;46212;50.258;19.062;2024-02-28T02:54:12;65.60;;;33.83;;
53339;SDS011;46212;50.258;19.062;2024-02-28T02:56:40;66.63;;;33.97;;
53339;SDS011;46212;50.258;19.062;2024-02-28T02:59:06;58.05;;;32.47;;
53339;SDS011;46212;50.258;19.062;2024-02-28T03:01:33;67.07;;;33.63;;
53339;SDS011;46212;50.258;19.062;2024-02-28T03:03:58;65.38;;;33.75;;
53339;SDS011;46212;50.258;19.062;2024-02-28T03:06:23;66.73;;;33.43;;
53339;SDS011;46212;50.258;19.062;2024-02-28T03:08:49;68.40;;;34.30;;
53339;SDS011;46212;50.258;19.062;2024-02-28T03:11:14;64.33;;;33.80;;
53339;SDS011;46212;50.258;19.062;2024-02-28T03:13:40;65.40;;;34.33;;
53339;SDS011;46212;50.258;19.062;2024-02-28T03:16:05;66.30;;;34.00;;
53339;SDS011;46212;50.258;19.062;2024-02-28T03:18:31;63.83;;;33.73;;
53339;SDS011;46212;50.258;19.062;2024-02-28T03:20:58;61.20;;;33.25;;
53339;SDS011;46212;50.258;19.062;2024-02-28T03:23:23;56.70;;;32.93;;
53339;SDS011;46212;50.258;19.062;2024-02-28T03:25:49;59.63;;;34.20;;
53339;SDS011;46212;50.258;19.062;2024-02-28T03:28:14;68.10;;;34.23;;
53339;SDS011;46212;50.258;19.062;2024-02-28T03:30:40;58.97;;;34.23;;
53339;SDS011;46212;50.258;19.062;2024-02-28T03:33:05;62.30;;;35.43;;
53339;SDS011;46212;50.258;19.062;2024-02-28T03:35:30;62.57;;;31.70;;
53339;SDS011;46212;50.258;19.062;2024-02-28T03:37:56;60.13;;;33.23;;
53339;SDS011;46212;50.258;19.062;2024-02-28T03:40:21;68.70;;;35.57;;
53339;SDS011;46212;50.258;19.062;2024-02-28T03:42:47;66.67;;;35.60;;
53339;SDS011;46212;50.258;19.062;2024-02-28T03:45:12;60.40;;;36.10;;
53339;SDS011;46212;50.258;19.062;2024-02-28T03:47:37;65.70;;;35.67;;
53339;SDS011;46212;50.258;19.062;2024-02-28T03:50:03;60.83;;;34.17;;
53339;SDS011;46212;50.258;19.062;2024-02-28T03:52:29;64.47;;;35.20;;
53339;SDS011;46212;50.258;19.062;2024-02-28T03:54:55;65.75;;;35.67;;
53339;SDS011;46212;50.258;19.062;2024-02-28T03:57:22;63.33;;;35.53;;
53339;SDS011;46212;50.258;19.062;2024-02-28T03:59:47;66.20;;;34.07;;
53339;SDS011;46212;50.258;19.062;2024-02-28T04:02:13;68.80;;;36.30;;
53339;SDS011;46212;50.258;19.062;2024-02-28T04:04:38;63.70;;;33.83;;
53339;SDS011;46212;50.258;19.062;2024-02-28T04:07:03;68.00;;;34.73;;
53339;SDS011;46212;50.258;19.062;2024-02-28T04:09:29;59.07;;;33.30;;
53339;SDS011;46212;50.258;19.062;2024-02-28T04:11:54;65.40;;;34.50;;
53339;SDS011;46212;50.258;19.062;2024-02-28T04:14:20;55.23;;;32.07;;
53339;SDS011;46212;50.258;19.062;2024-02-28T04:16:45;53.37;;;32.60;;
53339;SDS011;46212;50.258;19.062;2024-02-28T04:19:11;61.20;;;31.53;;
53339;SDS011;46212;50.258;19.062;2024-02-28T04:21:36;57.57;;;30.47;;
53339;SDS011;46212;50.258;19.062;2024-02-28T04:24:03;62.72;;;32.25;;
53339;SDS011;46212;50.258;19.062;2024-02-28T04:26:29;56.25;;;31.90;;
53339;SDS011;46212;50.258;19.062;2024-02-28T04:28:54;54.43;;;32.03;;
53339;SDS011;46212;50.258;19.062;2024-02-28T04:31:20;67.20;;;33.17;;
53339;SDS011;46212;50.258;19.062;2024-02-28T04:33:45;66.30;;;33.23;;
53339;SDS011;46212;50.258;19.062;2024-02-28T04:36:10;53.63;;;31.47;;
53339;SDS011;46212;50.258;19.062;2024-02-28T04:38:36;54.60;;;31.70;;
53339;SDS011;46212;50.258;19.062;2024-02-28T04:41:01;59.00;;;31.40;;
53339;SDS011;46212;50.258;19.062;2024-02-28T04:43:27;58.37;;;32.87;;
53339;SDS011;46212;50.258;19.062;2024-02-28T04:45:52;59.73;;;32.40;;
53339;SDS011;46212;50.258;19.062;2024-02-28T04:48:17;56.77;;;33.43;;
53339;SDS011;46212;50.258;19.062;2024-02-28T04:50:43;60.50;;;32.77;;
53339;SDS011;46212;50.258;19.062;2024-02-28T04:53:08;62.00;;;35.63;;
53339;SDS011;46212;50.258;19.062;2024-02-28T04:55:34;62.90;;;34.87;;
53339;SDS011;46212;50.258;19.062;2024-02-28T04:57:59;61.90;;;35.37;;
53339;SDS011;46212;50.258;19.062;2024-02-28T05:00:25;64.95;;;33.53;;
53339;SDS011;46212;50.258;19.062;2024-02-28T05:02:51;62.40;;;31.63;;
53339;SDS011;46212;50.258;19.062;2024-02-28T05:05:17;63.38;;;34.35;;
53339;SDS011;46212;50.258;19.062;2024-02-28T05:07:42;60.57;;;32.20;;
53339;SDS011;46212;50.258;19.062;2024-02-28T05:10:08;57.87;;;33.70;;
53339;SDS011;46212;50.258;19.062;2024-02-28T05:12:33;64.43;;;34.20;;
53339;SDS011;46212;50.258;19.062;2024-02-28T05:14:59;59.07;;;32.53;;
53339;SDS011;46212;50.258;19.062;2024-02-28T05:17:24;59.40;;;34.07;;
53339;SDS011;46212;50.258;19.062;2024-02-28T05:19:50;56.53;;;33.43;;
53339;SDS011;46212;50.258;19.062;2024-02-28T05:22:15;53.53;;;32.63;;
53339;SDS011;46212;50.258;19.062;2024-02-28T05:24:40;53.93;;;32.07;;
53339;SDS011;46212;50.258;19.062;2024-02-28T05:27:08;59.58;;;34.28;;
53339;SDS011;46212;50.258;19.062;2024-02-28T05:29:34;53.10;;;31.33;;
53339;SDS011;46212;50.258;19.062;2024-02-28T05:31:59;62.20;;;33.00;;
53339;SDS011;46212;50.258;19.062;2024-02-28T05:34:25;63.77;;;34.00;;
53339;SDS011;46212;50.258;19.062;2024-02-28T05:36:50;63.77;;;34.50;;
53339;SDS011;46212;50.258;19.062;2024-02-28T05:39:15;61.03;;;34.83;;
53339;SDS011;46212;50.258;19.062;2024-02-28T05:41:41;58.53;;;34.83;;
53339;SDS011;46212;50.258;19.062;2024-02-28T05:44:06;53.03;;;31.83;;
53339;SDS011;46212;50.258;19.062;2024-02-28T05:46:31;59.47;;;34.20;;
53339;SDS011;46212;50.258;19.062;2024-02-28T05:48:57;56.83;;;33.20;;
53339;SDS011;46212;50.258;19.062;2024-02-28T05:51:22;55.80;;;32.23;;
53339;SDS011;46212;50.258;19.062;2024-02-28T05:53:48;54.00;;;31.73;;
53339;SDS011;46212;50.258;19.062;2024-02-28T05:56:13;54.77;;;33.13;;
53339;SDS011;46212;50.258;19.062;2024-02-28T05:58:40;56.03;;;33.33;;
53339;SDS011;46212;50.258;19.062;2024-02-28T06:01:06;60.47;;;32.85;;
53339;SDS011;46212;50.258;19.062;2024-02-28T06:03:32;58.47;;;30.50;;
53339;SDS011;46212;50.258;19.062;2024-02-28T06:05:58;61.37;;;32.77;;
53339;SDS011;46212;50.258;19.062;2024-02-28T06:08:23;59.90;;;34.13;;
53339;SDS011;46212;50.258;19.062;2024-02-28T06:10:49;63.70;;;34.00;;
53339;SDS011;46212;50.258;19.062;2024-02-28T06:13:14;57.87;;;34.13;;
53339;SDS011;46212;50.258;19.062;2024-02-28T06:15:40;55.03;;;31.87;;
53339;SDS011;46212;50.258;19.062;2024-02-28T06:18:05;54.97;;;33.60;;
53339;SDS011;46212;50.258;19.062;2024-02-28T06:20:31;47.57;;;32.87;;
53339;SDS011;46212;50.258;19.062;2024-02-28T06:22:56;59.67;;;34.13;;
53339;SDS011;46212;50.258;19.062;2024-02-28T06:25:22;61.70;;;34.13;;
53339;SDS011;46212;50.258;19.062;2024-02-28T06:27:48;60.92;;;34.00;;
53339;SDS011;46212;50.258;19.062;2024-02-28T06:30:14;55.17;;;32.70;;
53339;SDS011;46212;50.258;19.062;2024-02-28T06:32:42;58.97;;;33.22;;
53339;SDS011;46212;50.258;19.062;2024-02-28T06:35:07;60.17;;;34.90;;
53339;SDS011;46212;50.258;19.062;2024-02-28T06:37:33;59.33;;;35.35;;
53339;SDS011;46212;50.258;19.062;2024-02-28T06:39:59;59.77;;;36.30;;
53339;SDS011;46212;50.258;19.062;2024-02-28T06:42:25;57.93;;;33.63;;
53339;SDS011;46212;50.258;19.062;2024-02-28T06:44:50;66.77;;;34.97;;
53339;SDS011;46212;50.258;19.062;2024-02-28T06:47:16;56.53;;;34.80;;
53339;SDS011;46212;50.258;19.062;2024-02-28T06:52:08;59.83;;;34.35;;
53339;SDS011;46212;50.258;19.062;2024-02-28T06:54:33;59.67;;;35.57;;
53339;SDS011;46212;50.258;19.062;2024-02-28T06:56:59;63.30;;;34.43;;
53339;SDS011;46212;50.258;19.062;2024-02-28T06:59:24;68.37;;;37.67;;
53339;SDS011;46212;50.258;19.062;2024-02-28T07:01:49;65.77;;;34.53;;
53339;SDS011;46212;50.258;19.062;2024-02-28T07:04:15;57.70;;;35.30;;
53339;SDS011;46212;50.258;19.062;2024-02-28T07:06:40;64.87;;;37.70;;
53339;SDS011;46212;50.258;19.062;2024-02-28T07:09:09;61.20;;;36.17;;
53339;SDS011;46212;50.258;19.062;2024-02-28T07:11:34;77.60;;;40.90;;
53339;SDS011;46212;50.258;19.062;2024-02-28T07:14:00;89.97;;;50.67;;
53339;SDS011;46212;50.258;19.062;2024-02-28T07:16:29;75.47;;;42.75;;
53339;SDS011;46212;50.258;19.062;2024-02-28T07:18:54;83.30;;;45.22;;
53339;SDS011;46212;50.258;19.062;2024-02-28T07:21:20;81.00;;;43.83;;
53339;SDS011;46212;50.258;19.062;2024-02-28T07:23:45;84.70;;;45.40;;
53339;SDS011;46212;50.258;19.062;2024-02-28T07:26:16;85.57;;;45.83;;
53339;SDS011;46212;50.258;19.062;2024-02-28T07:28:42;83.65;;;44.55;;
53339;SDS011;46212;50.258;19.062;2024-02-28T07:31:14;73.67;;;41.57;;
53339;SDS011;46212;50.258;19.062;2024-02-28T07:33:40;65.85;;;38.42;;
53339;SDS011;46212;50.258;19.062;2024-02-28T07:36:05;67.80;;;39.17;;
53339;SDS011;46212;50.258;19.062;2024-02-28T07:38:31;68.70;;;38.17;;
53339;SDS011;46212;50.258;19.062;2024-02-28T07:40:58;66.88;;;38.90;;
53339;SDS011;46212;50.258;19.062;2024-02-28T07:43:24;66.63;;;38.30;;
53339;SDS011;46212;50.258;19.062;2024-02-28T07:45:49;63.93;;;39.43;;
53339;SDS011;46212;50.258;19.062;2024-02-28T07:48:15;150.87;;;98.13;;
53339;SDS011;46212;50.258;19.062;2024-02-28T07:50:43;260.67;;;157.05;;
53339;SDS011;46212;50.258;19.062;2024-02-28T07:53:09;69.55;;;38.88;;
53339;SDS011;46212;50.258;19.062;2024-02-28T07:55:35;66.43;;;38.37;;
53339;SDS011;46212;50.258;19.062;2024-02-28T07:58:00;71.87;;;39.77;;
53339;SDS011;46212;50.258;19.062;2024-02-28T08:00:26;72.67;;;40.90;;
53339;SDS011;46212;50.258;19.062;2024-02-28T08:02:51;82.63;;;40.80;;
53339;SDS011;46212;50.258;19.062;2024-02-28T08:05:16;85.00;;;44.07;;
53339;SDS011;46212;50.258;19.062;2024-02-28T08:07:43;87.72;;;45.83;;
53339;SDS011;46212;50.258;19.062;2024-02-28T08:10:08;85.33;;;42.20;;
53339;SDS011;46212;50.258;19.062;2024-02-28T08:12:35;52.03;;;31.13;;
53339;SDS011;46212;50.258;19.062;2024-02-28T08:15:01;50.10;;;29.65;;
53339;SDS011;46212;50.258;19.062;2024-02-28T08:17:27;48.22;;;28.17;;
53339;SDS011;46212;50.258;19.062;2024-02-28T08:19:53;56.72;;;32.38;;
53339;SDS011;46212;50.258;19.062;2024-02-28T08:22:19;56.55;;;29.80;;
53339;SDS011;46212;50.258;19.062;2024-02-28T08:24:45;43.40;;;26.33;;
53339;SDS011;46212;50.258;19.062;2024-02-28T08:27:10;49.03;;;28.00;;
53339;SDS011;46212;50.258;19.062;2024-02-28T08:29:36;53.23;;;30.93;;
53339;SDS011;46212;50.258;19.062;2024-02-28T08:32:08;66.80;;;34.17;;
53339;SDS011;46212;50.258;19.062;2024-02-28T08:34:35;61.22;;;32.70;;
53339;SDS011;46212;50.258;19.062;2024-02-28T08:37:00;68.13;;;34.33;;
53339;SDS011;46212;50.258;19.062;2024-02-28T08:39:25;68.80;;;35.03;;
53339;SDS011;46212;50.258;19.062;2024-02-28T08:41:51;73.50;;;34.17;;
53339;SDS011;46212;50.258;19.062;2024-02-28T08:44:16;65.83;;;34.70;;
53339;SDS011;46212;50.258;19.062;2024-02-28T08:46:42;56.72;;;29.15;;
53339;SDS011;46212;50.258;19.062;2024-02-28T08:49:08;53.10;;;27.70;;
53339;SDS011;46212;50.258;19.062;2024-02-28T08:51:33;58.80;;;29.43;;
53339;SDS011;46212;50.258;19.062;2024-02-28T08:53:59;58.63;;;32.40;;
53339;SDS011;46212;50.258;19.062;2024-02-28T08:56:25;48.63;;;29.27;;
53339;SDS011;46212;50.258;19.062;2024-02-28T08:58:50;118.07;;;73.70;;
53339;SDS011;46212;50.258;19.062;2024-02-28T09:01:16;47.13;;;30.57;;
53339;SDS011;46212;50.258;19.062;2024-02-28T09:03:42;42.03;;;25.63;;
53339;SDS011;46212;50.258;19.062;2024-02-28T09:06:08;52.42;;;28.48;;
53339;SDS011;46212;50.258;19.062;2024-02-28T09:08:34;49.03;;;29.73;;
53339;SDS011;46212;50.258;19.062;2024-02-28T09:10:59;52.27;;;26.93;;
53339;SDS011;46212;50.258;19.062;2024-02-28T09:13:25;44.15;;;24.08;;
53339;SDS011;46212;50.258;19.062;2024-02-28T09:15:51;43.50;;;25.00;;
53339;SDS011;46212;50.258;19.062;2024-02-28T09:18:16;38.70;;;24.63;;
53339;SDS011;46212;50.258;19.062;2024-02-28T09:20:42;44.43;;;25.53;;
53339;SDS011;46212;50.258;19.062;2024-02-28T09:23:07;47.93;;;29.70;;
53339;SDS011;46212;50.258;19.062;2024-02-28T09:25:33;51.17;;;26.90;;
53339;SDS011;46212;50.258;19.062;2024-02-28T09:28:00;42.58;;;24.35;;
53339;SDS011;46212;50.258;19.062;2024-02-28T09:30:26;51.23;;;25.17;;
53339;SDS011;46212;50.258;19.062;2024-02-28T09:32:51;59.10;;;28.40;;
53339;SDS011;46212;50.258;19.062;2024-02-28T09:35:17;51.63;;;29.07;;
53339;SDS011;46212;50.258;19.062;2024-02-28T09:37:42;56.80;;;28.13;;
53339;SDS011;46212;50.258;19.062;2024-02-28T09:40:08;50.07;;;28.80;;
53339;SDS011;46212;50.258;19.062;2024-02-28T09:42:35;111.40;;;62.22;;
53339;SDS011;46212;50.258;19.062;2024-02-28T09:45:01;44.42;;;26.58;;
53339;SDS011;46212;50.258;19.062;2024-02-28T09:47:28;42.40;;;24.35;;
53339;SDS011;46212;50.258;19.062;2024-02-28T09:49:54;38.87;;;24.40;;
53339;SDS011;46212;50.258;19.062;2024-02-28T09:52:26;50.25;;;25.95;;
53339;SDS011;46212;50.258;19.062;2024-02-28T09:54:52;49.28;;;26.77;;
53339;SDS011;46212;50.258;19.062;2024-02-28T09:57:18;48.93;;;29.63;;
53339;SDS011;46212;50.258;19.062;2024-02-28T09:59:44;56.17;;;31.80;;
53339;SDS011;46212;50.258;19.062;2024-02-28T10:02:10;63.90;;;31.50;;
53339;SDS011;46212;50.258;19.062;2024-02-28T10:07:11;60.22;;;32.60;;
53339;SDS011;46212;50.258;19.062;2024-02-28T10:09:38;62.75;;;35.17;;
53339;SDS011;46212;50.258;19.062;2024-02-28T10:12:04;54.57;;;32.60;;
53339;SDS011;46212;50.258;19.062;2024-02-28T10:14:30;63.93;;;37.53;;
53339;SDS011;46212;50.258;19.062;2024-02-28T10:16:55;64.30;;;40.43;;
53339;SDS011;46212;50.258;19.062;2024-02-28T10:19:21;66.50;;;36.93;;
53339;SDS011;46212;50.258;19.062;2024-02-28T10:21:46;66.33;;;36.07;;
53339;SDS011;46212;50.258;19.062;2024-02-28T10:24:12;70.33;;;39.23;;
53339;SDS011;46212;50.258;19.062;2024-02-28T10:26:44;69.32;;;38.42;;
53339;SDS011;46212;50.258;19.062;2024-02-28T10:29:10;73.45;;;40.85;;
53339;SDS011;46212;50.258;19.062;2024-02-28T10:31:35;75.47;;;40.73;;
53339;SDS011;46212;50.258;19.062;2024-02-28T10:34:01;70.80;;;41.80;;
53339;SDS011;46212;50.258;19.062;2024-02-28T10:36:29;74.70;;;42.65;;
53339;SDS011;46212;50.258;19.062;2024-02-28T10:38:56;79.18;;;45.42;;
53339;SDS011;46212;50.258;19.062;2024-02-28T10:41:23;171.48;;;104.05;;
53339;SDS011;46212;50.258;19.062;2024-02-28T10:43:51;110.53;;;59.35;;
53339;SDS011;46212;50.258;19.062;2024-02-28T10:46:19;93.00;;;47.90;;
53339;SDS011;46212;50.258;19.062;2024-02-28T10:48:45;94.75;;;50.58;;
53339;SDS011;46212;50.258;19.062;2024-02-28T10:51:13;94.77;;;51.40;;
53339;SDS011;46212;50.258;19.062;2024-02-28T10:53:41;93.95;;;50.92;;
53339;SDS011;46212;50.258;19.062;2024-02-28T10:56:08;114.07;;;56.90;;
53339;SDS011;46212;50.258;19.062;2024-02-28T10:59:00;106.85;;;56.55;;
53339;SDS011;46212;50.258;19.062;2024-02-28T11:01:26;105.63;;;51.55;;
53339;SDS011;46212;50.258;19.062;2024-02-28T11:03:52;99.47;;;52.15;;
53339;SDS011;46212;50.258;19.062;2024-02-28T11:08:46;102.47;;;50.20;;
53339;SDS011;46212;50.258;19.062;2024-02-28T11:11:14;108.82;;;54.80;;
53339;SDS011;46212;50.258;19.062;2024-02-28T11:13:51;106.10;;;53.58;;
53339;SDS011;46212;50.258;19.062;2024-02-28T11:16:25;105.13;;;49.30;;
53339;SDS011;46212;50.258;19.062;2024-02-28T11:18:54;153.15;;;76.28;;
53339;SDS011;46212;50.258;19.062;2024-02-28T11:21:22;312.00;;;179.07;;
53339;SDS011;46212;50.258;19.062;2024-02-28T11:23:51;103.32;;;54.30;;
53339;SDS011;46212;50.258;19.062;2024-02-28T11:26:17;104.67;;;51.20;;
53339;SDS011;46212;50.258;19.062;2024-02-28T11:28:43;102.43;;;48.10;;
53339;SDS011;46212;50.258;19.062;2024-02-28T11:31:08;112.37;;;51.67;;
53339;SDS011;46212;50.258;19.062;2024-02-28T11:33:35;102.43;;;53.43;;
53339;SDS011;46212;50.258;19.062;2024-02-28T11:36:01;102.78;;;52.35;;
53339;SDS011;46212;50.258;19.062;2024-02-28T11:38:28;107.90;;;46.45;;
53339;SDS011;46212;50.258;19.062;2024-02-28T11:40:54;99.73;;;47.03;;
53339;SDS011;46212;50.258;19.062;2024-02-28T11:43:23;109.60;;;49.83;;
53339;SDS011;46212;50.258;19.062;2024-02-28T11:45:49;98.40;;;47.92;;
53339;SDS011;46212;50.258;19.062;2024-02-28T11:48:14;109.33;;;52.30;;
53339;SDS011;46212;50.258;19.062;2024-02-28T11:50:41;97.70;;;48.10;;
53339;SDS011;46212;50.258;19.062;2024-02-28T11:53:06;102.03;;;48.70;;
53339;SDS011;46212;50.258;19.062;2024-02-28T11:55:32;104.90;;;50.00;;
53339;SDS011;46212;50.258;19.062;2024-02-28T11:57:58;112.43;;;49.00;;
53339;SDS011;46212;50.258;19.062;2024-02-28T12:00:23;106.70;;;46.23;;
53339;SDS011;46212;50.258;19.062;2024-02-28T12:02:49;102.60;;;45.10;;
53339;SDS011;46212;50.258;19.062;2024-02-28T12:05:14;110.83;;;47.87;;
53339;SDS011;46212;50.258;19.062;2024-02-28T12:07:39;98.13;;;48.93;;
53339;SDS011;46212;50.258;19.062;2024-02-28T12:10:06;102.63;;;48.40;;
53339;SDS011;46212;50.258;19.062;2024-02-28T12:12:33;116.03;;;47.33;;
53339;SDS011;46212;50.258;19.062;2024-02-28T12:14:59;101.30;;;48.80;;
53339;SDS011;46212;50.258;19.062;2024-02-28T12:17:25;116.25;;;52.50;;
53339;SDS011;46212;50.258;19.062;2024-02-28T12:19:51;111.43;;;50.05;;
53339;SDS011;46212;50.258;19.062;2024-02-28T12:22:17;105.03;;;50.47;;
53339;SDS011;46212;50.258;19.062;2024-02-28T12:24:42;120.47;;;51.10;;
53339;SDS011;46212;50.258;19.062;2024-02-28T12:27:08;119.93;;;51.03;;
53339;SDS011;46212;50.258;19.062;2024-02-28T12:29:33;105.37;;;48.83;;
53339;SDS011;46212;50.258;19.062;2024-02-28T12:31:59;111.17;;;48.57;;
53339;SDS011;46212;50.258;19.062;2024-02-28T12:34:24;105.60;;;48.87;;
53339;SDS011;46212;50.258;19.062;2024-02-28T12:36:49;102.27;;;48.87;;
53339;SDS011;46212;50.258;19.062;2024-02-28T12:39:15;112.73;;;52.03;;
53339;SDS011;46212;50.258;19.062;2024-02-28T12:41:40;95.57;;;44.77;;
53339;SDS011;46212;50.258;19.062;2024-02-28T12:44:06;97.30;;;44.33;;
53339;SDS011;46212;50.258;19.062;2024-02-28T12:46:35;102.27;;;46.70;;
53339;SDS011;46212;50.258;19.062;2024-02-28T12:49:00;90.95;;;43.63;;
53339;SDS011;46212;50.258;19.062;2024-02-28T12:51:42;101.32;;;45.53;;
53339;SDS011;46212;50.258;19.062;2024-02-28T12:54:10;97.55;;;44.47;;
53339;SDS011;46212;50.258;19.062;2024-02-28T12:56:36;103.70;;;45.40;;
53339;SDS011;46212;50.258;19.062;2024-02-28T12:59:03;91.63;;;42.28;;
53339;SDS011;46212;50.258;19.062;2024-02-28T13:01:29;101.70;;;44.38;;
53339;SDS011;46212;50.258;19.062;2024-02-28T13:03:54;111.63;;;46.93;;
53339;SDS011;46212;50.258;19.062;2024-02-28T13:06:20;110.93;;;48.65;;
53339;SDS011;46212;50.258;19.062;2024-02-28T13:08:46;99.90;;;44.20;;
53339;SDS011;46212;50.258;19.062;2024-02-28T13:11:16;100.40;;;43.38;;
53339;SDS011;46212;50.258;19.062;2024-02-28T13:13:43;110.38;;;47.63;;
53339;SDS011;46212;50.258;19.062;2024-02-28T13:16:08;121.03;;;46.60;;
53339;SDS011;46212;50.258;19.062;2024-02-28T13:18:34;99.83;;;42.97;;
53339;SDS011;46212;50.258;19.062;2024-02-28T13:20:59;91.47;;;44.13;;
53339;SDS011;46212;50.258;19.062;2024-02-28T13:23:25;101.17;;;45.50;;
53339;SDS011;46212;50.258;19.062;2024-02-28T13:25:51;95.53;;;41.65;;
53339;SDS011;46212;50.258;19.062;2024-02-28T13:28:17;89.53;;;43.00;;
53339;SDS011;46212;50.258;19.062;2024-02-28T13:30:42;91.40;;;41.13;;
53339;SDS011;46212;50.258;19.062;2024-02-28T13:33:08;110.17;;;46.43;;
53339;SDS011;46212;50.258;19.062;2024-02-28T13:35:33;102.10;;;45.47;;
53339;SDS011;46212;50.258;19.062;2024-02-28T13:37:58;100.10;;;43.57;;
53339;SDS011;46212;50.258;19.062;2024-02-28T13:40:25;97.35;;;42.67;;
53339;SDS011;46212;50.258;19.062;2024-02-28T13:42:52;104.30;;;45.35;;
53339;SDS011;46212;50.258;19.062;2024-02-28T13:45:17;101.20;;;44.57;;
53339;SDS011;46212;50.258;19.062;2024-02-28T13:47:43;98.63;;;43.10;;
53339;SDS011;46212;50.258;19.062;2024-02-28T13:50:08;97.60;;;42.27;;
53339;SDS011;46212;50.258;19.062;2024-02-28T13:52:35;102.38;;;42.35;;
53339;SDS011;46212;50.258;19.062;2024-02-28T13:55:00;99.23;;;41.67;;
53339;SDS011;46212;50.258;19.062;2024-02-28T13:57:26;93.70;;;40.83;;
53339;SDS011;46212;50.258;19.062;2024-02-28T13:59:51;104.13;;;42.17;;
53339;SDS011;46212;50.258;19.062;2024-02-28T14:02:19;101.55;;;41.90;;
53339;SDS011;46212;50.258;19.062;2024-02-28T14:04:46;124.85;;;56.47;;
53339;SDS011;46212;50.258;19.062;2024-02-28T14:07:13;155.77;;;66.63;;
53339;SDS011;46212;50.258;19.062;2024-02-28T14:09:41;110.95;;;50.67;;